createdAt,value
2017-11-28T00:00:13.544Z,5.73
2017-11-28T00:01:13.527Z,5.72
2017-11-28T00:02:13.238Z,5.7
2017-11-28T00:03:13.586Z,5.65
2017-11-28T00:04:13.220Z,5.67
2017-11-28T00:05:13.475Z,5.65
2017-11-28T00:06:13.199Z,5.67
2017-11-28T00:07:13.445Z,5.73
2017-11-28T00:08:13.447Z,5.7
2017-11-28T00:09:13.166Z,5.76
2017-11-28T00:10:13.159Z,5.74
2017-11-28T00:11:13.409Z,5.76
2017-11-28T00:12:13.392Z,5.77
2017-11-28T00:13:13.397Z,5.76
2017-11-28T00:14:13.380Z,5.83
2017-11-28T00:15:12.845Z,5.87
2017-11-28T00:16:13.106Z,5.81
2017-11-28T00:17:13.348Z,5.73
2017-11-28T00:18:13.177Z,5.8
2017-11-28T00:19:13.321Z,5.83
2017-11-28T00:20:13.312Z,5.8
2017-11-28T00:21:13.048Z,5.88
2017-11-28T00:22:13.292Z,5.74
2017-11-28T00:23:13.289Z,5.83
2017-11-28T00:24:13.284Z,5.84
2017-11-28T00:25:13.278Z,5.83
2017-11-28T00:26:13.263Z,5.79
2017-11-28T00:27:13.243Z,5.79
2017-11-28T00:28:12.981Z,5.81
2017-11-28T00:29:13.227Z,5.74
2017-11-28T00:30:13.259Z,5.7
2017-11-28T00:31:12.951Z,5.77
2017-11-28T00:32:12.938Z,5.8
2017-11-28T00:33:13.223Z,5.81
2017-11-28T00:34:13.180Z,5.77
2017-11-28T00:35:13.004Z,5.87
2017-11-28T00:36:12.892Z,5.81
2017-11-28T00:37:13.145Z,5.84
2017-11-28T00:38:13.130Z,5.88
2017-11-28T00:39:12.860Z,5.87
2017-11-28T00:40:13.111Z,5.81
2017-11-28T00:41:12.943Z,5.8
2017-11-28T00:42:13.107Z,5.8
2017-11-28T00:43:13.078Z,5.84
2017-11-28T00:44:13.071Z,5.81
2017-11-28T00:45:13.159Z,5.91
2017-11-28T00:46:12.800Z,5.9
2017-11-28T00:47:13.041Z,5.98
2017-11-28T00:48:12.774Z,5.94
2017-11-28T00:49:12.760Z,5.95
2017-11-28T00:50:12.746Z,5.87
2017-11-28T00:51:12.741Z,5.94
2017-11-28T00:52:12.732Z,5.98
2017-11-28T00:53:13.078Z,5.98
2017-11-28T00:54:12.974Z,5.91
2017-11-28T00:55:12.956Z,5.95
2017-11-28T00:56:12.696Z,5.97
2017-11-28T00:57:13.035Z,5.97
2017-11-28T00:58:13.040Z,5.92
2017-11-28T00:59:12.915Z,5.9
2017-11-28T01:00:12.912Z,5.94
2017-11-28T01:01:12.918Z,5.97
2017-11-28T01:02:12.631Z,5.98
2017-11-28T01:03:12.874Z,5.94
2017-11-28T01:04:12.606Z,5.97
2017-11-28T01:05:12.600Z,5.97
2017-11-28T01:06:12.850Z,5.9
2017-11-28T01:07:12.835Z,5.97
2017-11-28T01:08:12.825Z,5.87
2017-11-28T01:09:12.820Z,5.84
2017-11-28T01:10:12.810Z,5.84
2017-11-28T01:11:12.796Z,5.94
2017-11-28T01:12:12.527Z,5.9
2017-11-28T01:13:12.514Z,5.92
2017-11-28T01:14:12.775Z,5.84
2017-11-28T01:15:12.857Z,5.88
2017-11-28T01:16:12.225Z,5.81
2017-11-28T01:17:12.736Z,5.9
2017-11-28T01:18:12.563Z,5.88
2017-11-28T01:19:12.718Z,5.87
2017-11-28T01:20:12.447Z,5.83
2017-11-28T01:21:12.696Z,5.88
2017-11-28T01:22:12.687Z,5.94
2017-11-28T01:23:12.672Z,5.81
2017-11-28T01:24:12.684Z,5.81
2017-11-28T01:25:12.652Z,5.88
2017-11-28T01:26:12.680Z,5.94
2017-11-28T01:27:12.641Z,5.99
2017-11-28T01:28:12.636Z,5.92
2017-11-28T01:29:12.617Z,5.95
2017-11-28T01:30:12.349Z,5.92
2017-11-28T01:31:12.604Z,5.88
2017-11-28T01:32:12.583Z,5.81
2017-11-28T01:33:12.676Z,5.84
2017-11-28T01:34:12.562Z,5.88
2017-11-28T01:35:12.296Z,5.84
2017-11-28T01:36:12.545Z,5.88
2017-11-28T01:37:12.306Z,5.9
2017-11-28T01:38:12.526Z,5.88
2017-11-28T01:39:12.263Z,5.83
2017-11-28T01:40:12.507Z,5.91
2017-11-28T01:41:12.493Z,5.84
2017-11-28T01:42:12.482Z,5.88
2017-11-28T01:43:12.483Z,5.84
2017-11-28T01:44:12.463Z,5.92
2017-11-28T01:45:12.459Z,5.88
2017-11-28T01:46:12.443Z,5.97
2017-11-28T01:47:12.174Z,5.99
2017-11-28T01:48:12.162Z,5.94
2017-11-28T01:49:12.443Z,5.95
2017-11-28T01:50:12.413Z,5.91
2017-11-28T01:51:12.394Z,5.98
2017-11-28T01:52:12.485Z,5.97
2017-11-28T01:53:12.112Z,5.95
2017-11-28T01:54:12.108Z,5.92
2017-11-28T01:55:12.094Z,5.91
2017-11-28T01:56:12.344Z,5.9
2017-11-28T01:57:12.341Z,6.01
2017-11-28T01:58:12.327Z,5.99
2017-11-28T01:59:12.056Z,5.97
2017-11-28T02:00:12.339Z,5.95
2017-11-28T02:01:12.313Z,5.91
2017-11-28T02:02:12.287Z,6.01
2017-11-28T02:03:12.013Z,6.01
2017-11-28T02:04:11.747Z,5.95
2017-11-28T02:05:12.349Z,5.92
2017-11-28T02:06:12.254Z,5.95
2017-11-28T02:07:12.236Z,5.97
2017-11-28T02:08:11.961Z,5.98
2017-11-28T02:09:11.953Z,5.91
2017-11-28T02:10:12.208Z,5.87
2017-11-28T02:11:12.201Z,5.92
2017-11-28T02:12:12.184Z,5.95
2017-11-28T02:13:12.169Z,5.95
2017-11-28T02:14:12.163Z,5.95
2017-11-28T02:15:12.156Z,5.84
2017-11-28T02:16:12.168Z,5.83
2017-11-28T02:17:12.136Z,5.81
2017-11-28T02:18:12.139Z,5.83
2017-11-28T02:19:12.219Z,5.88
2017-11-28T02:20:11.844Z,5.87
2017-11-28T02:21:12.096Z,5.84
2017-11-28T02:22:11.845Z,5.88
2017-11-28T02:23:12.077Z,5.8
2017-11-28T02:24:11.804Z,5.84
2017-11-28T02:25:12.052Z,5.79
2017-11-28T02:26:11.784Z,5.74
2017-11-28T02:27:11.778Z,5.79
2017-11-28T02:28:12.022Z,5.72
2017-11-28T02:29:12.015Z,5.76
2017-11-28T02:30:11.746Z,5.65
2017-11-28T02:31:11.998Z,5.65
2017-11-28T02:32:12.006Z,5.67
2017-11-28T02:33:11.714Z,5.61
2017-11-28T02:34:11.963Z,5.64
2017-11-28T02:35:11.972Z,5.59
2017-11-28T02:36:11.731Z,5.72
2017-11-28T02:37:11.939Z,5.65
2017-11-28T02:38:12.063Z,5.69
2017-11-28T02:39:11.952Z,5.56
2017-11-28T02:40:11.754Z,5.62
2017-11-28T02:41:11.896Z,5.59
2017-11-28T02:42:11.362Z,5.58
2017-11-28T02:43:11.876Z,5.58
2017-11-28T02:44:11.609Z,5.54
2017-11-28T02:45:11.863Z,5.58
2017-11-28T02:46:11.842Z,5.49
2017-11-28T02:47:11.312Z,5.56
2017-11-28T02:48:11.564Z,5.49
2017-11-28T02:49:11.877Z,5.55
2017-11-28T02:50:11.553Z,5.56
2017-11-28T02:51:11.788Z,5.54
2017-11-28T02:52:11.524Z,5.38
2017-11-28T02:53:11.509Z,5.38
2017-11-28T02:54:11.242Z,5.46
2017-11-28T02:55:11.764Z,5.49
2017-11-28T02:56:11.762Z,5.36
2017-11-28T02:57:11.473Z,5.41
2017-11-28T02:58:11.722Z,5.46
2017-11-28T02:59:11.711Z,5.4
2017-11-28T03:00:11.814Z,5.33
2017-11-28T03:01:11.696Z,5.37
2017-11-28T03:02:11.422Z,5.41
2017-11-28T03:03:11.677Z,5.43
2017-11-28T03:04:11.407Z,5.43
2017-11-28T03:05:11.647Z,5.41
2017-11-28T03:06:11.635Z,5.4
2017-11-28T03:07:11.110Z,5.4
2017-11-28T03:08:11.616Z,5.44
2017-11-28T03:09:11.611Z,5.4
2017-11-28T03:10:11.605Z,5.37
2017-11-28T03:11:11.593Z,5.44
2017-11-28T03:12:11.575Z,5.38
2017-11-28T03:13:11.048Z,5.36
2017-11-28T03:14:11.294Z,5.25
2017-11-28T03:15:11.548Z,5.34
2017-11-28T03:16:11.537Z,5.34
2017-11-28T03:17:11.527Z,5.38
2017-11-28T03:18:11.513Z,5.38
2017-11-28T03:19:11.245Z,5.37
2017-11-28T03:20:11.492Z,5.33
2017-11-28T03:21:11.227Z,5.34
2017-11-28T03:22:11.471Z,5.29
2017-11-28T03:23:11.465Z,5.28
2017-11-28T03:24:11.453Z,5.25
2017-11-28T03:25:11.446Z,5.26
2017-11-28T03:26:11.433Z,5.25
2017-11-28T03:27:11.430Z,5.25
2017-11-28T03:28:10.892Z,5.26
2017-11-28T03:29:11.409Z,5.25
2017-11-28T03:30:11.502Z,5.29
2017-11-28T03:31:11.395Z,5.25
2017-11-28T03:32:11.367Z,5.29
2017-11-28T03:33:11.365Z,5.25
2017-11-28T03:34:11.086Z,5.26
2017-11-28T03:35:11.086Z,5.22
2017-11-28T03:36:10.805Z,5.2
2017-11-28T03:37:11.309Z,5.19
2017-11-28T03:38:10.786Z,5.19
2017-11-28T03:39:11.292Z,5.25
2017-11-28T03:40:10.760Z,5.18
2017-11-28T03:41:11.371Z,5.23
2017-11-28T03:42:11.002Z,5.19
2017-11-28T03:43:11.254Z,5.2
2017-11-28T03:44:11.251Z,5.18
2017-11-28T03:45:10.970Z,5.19
2017-11-28T03:46:11.217Z,5.19
2017-11-28T03:47:11.209Z,5.16
2017-11-28T03:48:11.202Z,5.23
2017-11-28T03:49:11.026Z,5.18
2017-11-28T03:50:11.275Z,5.16
2017-11-28T03:51:11.166Z,5.13
2017-11-28T03:52:11.251Z,5.12
2017-11-28T03:53:10.889Z,5.19
2017-11-28T03:54:10.874Z,5.15
2017-11-28T03:55:10.871Z,5.02
2017-11-28T03:56:10.856Z,5.07
2017-11-28T03:57:11.104Z,5.04
2017-11-28T03:58:10.931Z,5.05
2017-11-28T03:59:11.076Z,5.16
2017-11-28T04:00:10.838Z,5.12
2017-11-28T04:01:11.068Z,5.04
2017-11-28T04:02:11.050Z,5.02
2017-11-28T04:03:11.032Z,5.1
2017-11-28T04:04:11.127Z,5.15
2017-11-28T04:05:10.757Z,5.08
2017-11-28T04:06:11.017Z,5.07
2017-11-28T04:07:10.990Z,5.08
2017-11-28T04:08:10.988Z,5.1
2017-11-28T04:09:11.071Z,5.05
2017-11-28T04:10:10.962Z,5
2017-11-28T04:11:10.956Z,5.04
2017-11-28T04:12:10.679Z,5.04
2017-11-28T04:13:10.929Z,5.1
2017-11-28T04:14:10.916Z,4.97
2017-11-28T04:15:10.648Z,5.04
2017-11-28T04:16:10.895Z,4.94
2017-11-28T04:17:10.624Z,4.92
2017-11-28T04:18:10.879Z,4.98
2017-11-28T04:19:10.652Z,4.86
2017-11-28T04:20:10.857Z,4.97
2017-11-28T04:21:10.843Z,4.9
2017-11-28T04:22:10.831Z,4.95
2017-11-28T04:23:10.824Z,5.01
2017-11-28T04:24:10.551Z,4.95
2017-11-28T04:25:10.540Z,4.9
2017-11-28T04:26:10.531Z,5.02
2017-11-28T04:27:10.516Z,4.94
2017-11-28T04:28:10.509Z,4.92
2017-11-28T04:29:10.756Z,4.9
2017-11-28T04:30:10.491Z,4.89
2017-11-28T04:31:10.473Z,4.84
2017-11-28T04:32:10.462Z,4.84
2017-11-28T04:33:10.193Z,4.79
2017-11-28T04:34:10.441Z,4.83
2017-11-28T04:35:10.700Z,4.79
2017-11-28T04:36:10.678Z,4.78
2017-11-28T04:37:10.515Z,4.76
2017-11-28T04:38:10.661Z,4.75
2017-11-28T04:39:10.649Z,4.78
2017-11-28T04:40:10.636Z,4.76
2017-11-28T04:41:10.630Z,4.82
2017-11-28T04:42:10.356Z,4.84
2017-11-28T04:43:10.614Z,4.76
2017-11-28T04:44:10.591Z,4.76
2017-11-28T04:45:10.326Z,4.79
2017-11-28T04:46:10.322Z,4.78
2017-11-28T04:47:10.560Z,4.78
2017-11-28T04:48:10.561Z,4.75
2017-11-28T04:49:10.542Z,4.71
2017-11-28T04:50:10.537Z,4.68
2017-11-28T04:51:10.513Z,4.75
2017-11-28T04:52:10.507Z,4.76
2017-11-28T04:53:10.496Z,4.68
2017-11-28T04:54:10.488Z,4.71
2017-11-28T04:55:10.479Z,4.75
2017-11-28T04:56:10.201Z,4.7
2017-11-28T04:57:10.450Z,4.75
2017-11-28T04:58:10.184Z,4.75
2017-11-28T04:59:10.171Z,4.7
2017-11-28T05:00:10.161Z,4.74
2017-11-28T05:01:10.403Z,4.67
2017-11-28T05:02:09.878Z,4.74
2017-11-28T05:03:10.126Z,4.66
2017-11-28T05:04:10.122Z,4.78
2017-11-28T05:05:10.370Z,4.75
2017-11-28T05:06:10.100Z,4.68
2017-11-28T05:07:10.345Z,4.71
2017-11-28T05:08:10.334Z,4.66
2017-11-28T05:09:10.319Z,4.64
2017-11-28T05:10:10.052Z,4.71
2017-11-28T05:11:10.307Z,4.66
2017-11-28T05:12:10.030Z,4.66
2017-11-28T05:13:10.279Z,4.61
2017-11-28T05:14:10.012Z,4.64
2017-11-28T05:15:10.264Z,4.71
2017-11-28T05:16:10.269Z,4.71
2017-11-28T05:17:10.231Z,4.76
2017-11-28T05:18:10.331Z,4.74
2017-11-28T05:19:09.950Z,4.7
2017-11-28T05:20:09.945Z,4.7
2017-11-28T05:21:10.031Z,4.71
2017-11-28T05:22:09.661Z,4.76
2017-11-28T05:23:10.278Z,4.61
2017-11-28T05:24:09.998Z,4.74
2017-11-28T05:25:09.888Z,4.66
2017-11-28T05:26:10.143Z,4.66
2017-11-28T05:27:10.124Z,4.67
2017-11-28T05:28:10.118Z,4.68
2017-11-28T05:29:10.100Z,4.75
2017-11-28T05:30:10.095Z,4.75
2017-11-28T05:31:09.831Z,4.71
2017-11-28T05:32:10.084Z,4.71
2017-11-28T05:33:10.062Z,4.7
2017-11-28T05:34:10.051Z,4.68
2017-11-28T05:35:09.785Z,4.67
2017-11-28T05:36:10.139Z,4.68
2017-11-28T05:37:10.018Z,4.6
2017-11-28T05:38:09.747Z,4.67
2017-11-28T05:39:10.006Z,4.68
2017-11-28T05:40:09.992Z,4.66
2017-11-28T05:41:09.979Z,4.74
2017-11-28T05:42:09.961Z,4.67
2017-11-28T05:43:09.694Z,4.64
2017-11-28T05:44:09.686Z,4.6
2017-11-28T05:45:09.932Z,4.57
2017-11-28T05:46:09.949Z,4.64
2017-11-28T05:47:09.390Z,4.61
2017-11-28T05:48:09.893Z,4.63
2017-11-28T05:49:09.728Z,4.68
2017-11-28T05:50:09.877Z,4.61
2017-11-28T05:51:09.607Z,4.61
2017-11-28T05:52:09.855Z,4.61
2017-11-28T05:53:09.837Z,4.57
2017-11-28T05:54:09.841Z,4.61
2017-11-28T05:55:09.561Z,4.6
2017-11-28T05:56:09.551Z,4.61
2017-11-28T05:57:09.548Z,4.66
2017-11-28T05:58:09.532Z,4.6
2017-11-28T05:59:09.518Z,4.57
2017-11-28T06:00:09.241Z,4.66
2017-11-28T06:01:09.743Z,4.63
2017-11-28T06:02:09.745Z,4.61
2017-11-28T06:03:09.719Z,4.61
2017-11-28T06:04:09.460Z,4.6
2017-11-28T06:05:09.471Z,4.66
2017-11-28T06:06:09.534Z,4.63
2017-11-28T06:07:09.680Z,4.6
2017-11-28T06:08:09.154Z,4.64
2017-11-28T06:09:09.760Z,4.63
2017-11-28T06:10:09.661Z,4.63
2017-11-28T06:11:09.743Z,4.6
2017-11-28T06:12:09.371Z,4.6
2017-11-28T06:13:09.622Z,4.71
2017-11-28T06:14:09.348Z,4.7
2017-11-28T06:15:09.606Z,4.63
2017-11-28T06:16:09.630Z,4.64
2017-11-28T06:17:09.418Z,4.66
2017-11-28T06:18:09.565Z,4.76
2017-11-28T06:19:09.552Z,4.68
2017-11-28T06:20:09.541Z,4.64
2017-11-28T06:21:09.538Z,4.67
2017-11-28T06:22:09.523Z,4.67
2017-11-28T06:23:09.509Z,4.67
2017-11-28T06:24:09.243Z,4.66
2017-11-28T06:25:09.591Z,4.63
2017-11-28T06:26:09.481Z,4.68
2017-11-28T06:27:09.468Z,4.61
2017-11-28T06:28:09.204Z,4.6
2017-11-28T06:29:09.444Z,4.57
2017-11-28T06:30:09.186Z,4.68
2017-11-28T06:31:09.437Z,4.63
2017-11-28T06:32:09.419Z,4.63
2017-11-28T06:33:09.404Z,4.67
2017-11-28T06:34:09.393Z,4.68
2017-11-28T06:35:09.425Z,4.61
2017-11-28T06:36:09.373Z,4.64
2017-11-28T06:37:09.357Z,4.71
2017-11-28T06:38:09.360Z,4.57
2017-11-28T06:39:09.353Z,4.64
2017-11-28T06:40:09.345Z,4.61
2017-11-28T06:41:09.323Z,4.66
2017-11-28T06:42:09.046Z,4.64
2017-11-28T06:43:09.290Z,4.61
2017-11-28T06:44:09.289Z,4.66
2017-11-28T06:45:09.282Z,4.74
2017-11-28T06:46:09.372Z,4.66
2017-11-28T06:47:08.995Z,4.6
2017-11-28T06:48:09.250Z,4.58
2017-11-28T06:49:08.971Z,4.66
2017-11-28T06:50:09.229Z,4.56
2017-11-28T06:51:09.207Z,4.64
2017-11-28T06:52:09.197Z,4.64
2017-11-28T06:53:09.191Z,4.56
2017-11-28T06:54:09.176Z,4.68
2017-11-28T06:55:09.167Z,4.63
2017-11-28T06:56:08.893Z,4.67
2017-11-28T06:57:09.143Z,4.7
2017-11-28T06:58:08.982Z,4.75
2017-11-28T06:59:09.118Z,4.66
2017-11-28T07:00:09.115Z,4.67
2017-11-28T07:01:08.843Z,4.71
2017-11-28T07:02:09.091Z,4.66
2017-11-28T07:03:08.827Z,4.67
2017-11-28T07:04:09.069Z,4.66
2017-11-28T07:05:09.167Z,4.71
2017-11-28T07:06:08.886Z,4.67
2017-11-28T07:07:08.778Z,4.64
2017-11-28T07:08:08.770Z,4.67
2017-11-28T07:09:09.012Z,4.64
2017-11-28T07:10:09.010Z,4.67
2017-11-28T07:11:08.992Z,4.67
2017-11-28T07:12:08.467Z,4.66
2017-11-28T07:13:08.971Z,4.63
2017-11-28T07:14:08.961Z,4.61
2017-11-28T07:15:08.947Z,4.67
2017-11-28T07:16:08.940Z,4.58
2017-11-28T07:17:08.927Z,4.66
2017-11-28T07:18:08.914Z,4.66
2017-11-28T07:19:08.939Z,4.67
2017-11-28T07:20:08.638Z,4.71
2017-11-28T07:21:08.887Z,4.74
2017-11-28T07:22:08.717Z,4.67
2017-11-28T07:23:08.604Z,4.82
2017-11-28T07:24:08.849Z,4.71
2017-11-28T07:25:08.603Z,4.68
2017-11-28T07:26:08.673Z,4.68
2017-11-28T07:27:08.824Z,4.74
2017-11-28T07:28:08.548Z,4.71
2017-11-28T07:29:08.796Z,4.66
2017-11-28T07:30:08.784Z,4.82
2017-11-28T07:31:08.779Z,4.7
2017-11-28T07:32:08.867Z,4.71
2017-11-28T07:33:08.502Z,4.75
2017-11-28T07:34:08.751Z,4.7
2017-11-28T07:35:08.732Z,4.83
2017-11-28T07:36:08.473Z,4.75
2017-11-28T07:37:08.714Z,4.76
2017-11-28T07:38:08.710Z,4.78
2017-11-28T07:39:08.177Z,4.82
2017-11-28T07:40:08.781Z,4.76
2017-11-28T07:41:08.410Z,4.84
2017-11-28T07:42:08.141Z,4.84
2017-11-28T07:43:08.652Z,4.9
2017-11-28T07:44:08.382Z,4.95
2017-11-28T07:45:08.643Z,4.94
2017-11-28T07:46:08.623Z,4.94
2017-11-28T07:47:08.602Z,4.95
2017-11-28T07:48:08.598Z,5
2017-11-28T07:49:08.071Z,4.94
2017-11-28T07:50:08.579Z,5.01
2017-11-28T07:51:08.307Z,5.02
2017-11-28T07:52:08.403Z,5
2017-11-28T07:53:08.534Z,4.95
2017-11-28T07:54:08.529Z,5.07
2017-11-28T07:55:08.006Z,5.01
2017-11-28T07:56:08.251Z,5.07
2017-11-28T07:57:08.501Z,5.05
2017-11-28T07:58:08.489Z,5.1
2017-11-28T07:59:08.482Z,5.13
2017-11-28T08:00:08.221Z,5.02
2017-11-28T08:01:08.456Z,5.15
2017-11-28T08:02:08.192Z,5.07
2017-11-28T08:03:08.436Z,5.12
2017-11-28T08:04:08.425Z,5.08
2017-11-28T08:05:08.419Z,5.23
2017-11-28T08:06:08.407Z,5.23
2017-11-28T08:07:08.392Z,5.18
2017-11-28T08:08:08.124Z,5.25
2017-11-28T08:09:08.371Z,5.2
2017-11-28T08:10:08.371Z,5.29
2017-11-28T08:11:08.092Z,5.29
2017-11-28T08:12:08.084Z,5.33
2017-11-28T08:13:08.461Z,5.36
2017-11-28T08:14:08.065Z,5.37
2017-11-28T08:15:08.049Z,5.37
2017-11-28T08:16:08.039Z,5.38
2017-11-28T08:17:08.286Z,5.41
2017-11-28T08:18:08.281Z,5.49
2017-11-28T08:19:08.008Z,5.46
2017-11-28T08:20:07.736Z,5.46
2017-11-28T08:21:08.247Z,5.52
2017-11-28T08:22:08.233Z,5.47
2017-11-28T08:23:08.068Z,5.49
2017-11-28T08:24:08.221Z,5.47
2017-11-28T08:25:07.792Z,5.51
2017-11-28T08:26:07.937Z,5.51
2017-11-28T08:27:07.922Z,5.65
2017-11-28T08:28:08.177Z,5.62
2017-11-28T08:29:08.159Z,5.7
2017-11-28T08:30:07.633Z,5.65
2017-11-28T08:31:07.897Z,5.74
2017-11-28T08:32:08.123Z,5.74
2017-11-28T08:33:07.705Z,5.81
2017-11-28T08:34:07.851Z,5.81
2017-11-28T08:35:08.095Z,5.84
2017-11-28T08:36:07.829Z,5.9
2017-11-28T08:37:08.074Z,5.8
2017-11-28T08:38:08.068Z,5.98
2017-11-28T08:39:08.054Z,6.01
2017-11-28T08:40:08.046Z,5.98
2017-11-28T08:41:07.790Z,5.92
2017-11-28T08:42:07.774Z,6.07
2017-11-28T08:43:08.031Z,6.02
2017-11-28T08:44:08.103Z,6.05
2017-11-28T08:45:07.753Z,6.07
2017-11-28T08:46:08.081Z,6.13
2017-11-28T08:47:07.976Z,6.13
2017-11-28T08:48:07.959Z,6.06
2017-11-28T08:49:07.947Z,6.12
2017-11-28T08:50:07.950Z,6.06
2017-11-28T08:51:07.933Z,6.09
2017-11-28T08:52:07.931Z,6.19
2017-11-28T08:53:07.909Z,6.25
2017-11-28T08:54:07.914Z,6.26
2017-11-28T08:55:08.088Z,6.22
2017-11-28T08:56:07.364Z,6.22
2017-11-28T08:57:07.868Z,6.2
2017-11-28T08:58:07.856Z,6.15
2017-11-28T08:59:07.848Z,6.16
2017-11-28T09:00:07.870Z,6.29
2017-11-28T09:01:07.570Z,6.16
2017-11-28T09:02:07.820Z,6.26
2017-11-28T09:03:07.548Z,6.16
2017-11-28T09:04:07.815Z,6.15
2017-11-28T09:05:07.534Z,6.17
2017-11-28T09:06:07.886Z,6.19
2017-11-28T09:07:07.775Z,6.19
2017-11-28T09:08:07.774Z,6.12
2017-11-28T09:09:07.487Z,6.2
2017-11-28T09:10:07.221Z,6.16
2017-11-28T09:11:07.723Z,6.12
2017-11-28T09:12:07.737Z,6.1
2017-11-28T09:13:07.711Z,6.16
2017-11-28T09:14:07.698Z,6.22
2017-11-28T09:15:07.793Z,6.29
2017-11-28T09:16:07.671Z,6.25
2017-11-28T09:17:07.681Z,6.26
2017-11-28T09:18:07.395Z,6.32
2017-11-28T09:19:07.647Z,6.34
2017-11-28T09:20:07.388Z,6.34
2017-11-28T09:21:07.623Z,6.36
2017-11-28T09:22:07.616Z,6.38
2017-11-28T09:23:07.600Z,6.39
2017-11-28T09:24:07.433Z,6.36
2017-11-28T09:25:07.324Z,6.35
2017-11-28T09:26:07.582Z,6.34
2017-11-28T09:27:07.371Z,6.39
2017-11-28T09:28:07.553Z,6.39
2017-11-28T09:29:07.538Z,6.36
2017-11-28T09:30:07.277Z,6.41
2017-11-28T09:31:07.623Z,6.38
2017-11-28T09:32:07.253Z,6.38
2017-11-28T09:33:07.494Z,6.36
2017-11-28T09:34:07.490Z,6.41
2017-11-28T09:35:07.486Z,6.46
2017-11-28T09:36:07.471Z,6.49
2017-11-28T09:37:07.202Z,6.47
2017-11-28T09:38:07.448Z,6.49
2017-11-28T09:39:07.452Z,6.35
2017-11-28T09:40:07.456Z,6.39
2017-11-28T09:41:07.418Z,6.46
2017-11-28T09:42:07.442Z,6.35
2017-11-28T09:43:07.397Z,6.38
2017-11-28T09:44:07.388Z,6.49
2017-11-28T09:45:07.382Z,6.35
2017-11-28T09:46:07.383Z,6.49
2017-11-28T09:47:07.364Z,6.41
2017-11-28T09:48:07.355Z,6.49
2017-11-28T09:49:07.078Z,6.39
2017-11-28T09:50:07.440Z,6.41
2017-11-28T09:51:07.314Z,6.34
2017-11-28T09:52:07.048Z,6.38
2017-11-28T09:53:07.038Z,6.5
2017-11-28T09:54:07.294Z,6.43
2017-11-28T09:55:07.275Z,6.5
2017-11-28T09:56:07.271Z,6.52
2017-11-28T09:57:07.299Z,6.57
2017-11-28T09:58:06.998Z,6.6
2017-11-28T09:59:07.235Z,6.46
2017-11-28T10:00:06.974Z,6.5
2017-11-28T10:01:07.057Z,6.65
2017-11-28T10:02:07.209Z,6.59
2017-11-28T10:03:06.680Z,6.64
2017-11-28T10:04:07.221Z,6.68
2017-11-28T10:05:07.268Z,6.6
2017-11-28T10:06:06.908Z,6.6
2017-11-28T10:07:07.149Z,6.68
2017-11-28T10:08:06.887Z,6.67
2017-11-28T10:09:07.145Z,6.6
2017-11-28T10:10:07.125Z,6.75
2017-11-28T10:11:06.858Z,6.71
2017-11-28T10:12:07.104Z,6.71
2017-11-28T10:13:06.831Z,6.77
2017-11-28T10:14:07.097Z,6.75
2017-11-28T10:15:06.823Z,6.71
2017-11-28T10:16:07.066Z,6.78
2017-11-28T10:17:07.052Z,6.86
2017-11-28T10:18:07.037Z,6.86
2017-11-28T10:19:06.776Z,6.83
2017-11-28T10:20:07.028Z,6.86
2017-11-28T10:21:07.023Z,6.82
2017-11-28T10:22:07.003Z,6.82
2017-11-28T10:23:07.000Z,6.83
2017-11-28T10:24:06.467Z,6.85
2017-11-28T10:25:06.972Z,6.71
2017-11-28T10:26:06.701Z,6.75
2017-11-28T10:27:06.947Z,6.7
2017-11-28T10:28:06.684Z,6.75
2017-11-28T10:29:06.930Z,6.74
2017-11-28T10:30:06.921Z,6.74
2017-11-28T10:31:06.662Z,6.71
2017-11-28T10:32:06.909Z,6.77
2017-11-28T10:33:06.892Z,6.8
2017-11-28T10:34:06.880Z,6.8
2017-11-28T10:35:06.872Z,6.74
2017-11-28T10:36:06.857Z,6.7
2017-11-28T10:37:06.850Z,6.78
2017-11-28T10:38:06.582Z,6.77
2017-11-28T10:39:06.681Z,6.77
2017-11-28T10:40:06.926Z,6.71
2017-11-28T10:41:06.549Z,6.67
2017-11-28T10:42:06.818Z,6.6
2017-11-28T10:43:06.532Z,6.65
2017-11-28T10:44:06.262Z,6.54
2017-11-28T10:45:06.768Z,6.5
2017-11-28T10:46:06.765Z,6.52
2017-11-28T10:47:06.233Z,6.57
2017-11-28T10:48:06.737Z,6.59
2017-11-28T10:49:06.470Z,6.49
2017-11-28T10:50:06.721Z,6.6
2017-11-28T10:51:06.709Z,6.64
2017-11-28T10:52:06.731Z,6.64
2017-11-28T10:53:06.787Z,6.59
2017-11-28T10:54:06.695Z,6.53
2017-11-28T10:55:06.417Z,6.64
2017-11-28T10:56:06.764Z,6.68
2017-11-28T10:57:06.744Z,6.71
2017-11-28T10:58:06.641Z,6.57
2017-11-28T10:59:06.377Z,6.52
2017-11-28T11:00:06.619Z,6.65
2017-11-28T11:01:06.350Z,6.62
2017-11-28T11:02:06.338Z,6.52
2017-11-28T11:03:06.582Z,6.5
2017-11-28T11:04:06.682Z,6.5
2017-11-28T11:05:06.315Z,6.47
2017-11-28T11:06:06.299Z,6.52
2017-11-28T11:07:06.545Z,6.53
2017-11-28T11:08:06.277Z,6.35
2017-11-28T11:09:06.270Z,6.46
2017-11-28T11:10:06.518Z,6.43
2017-11-28T11:11:06.258Z,6.46
2017-11-28T11:12:06.504Z,6.39
2017-11-28T11:13:06.508Z,6.41
2017-11-28T11:14:06.471Z,6.41
2017-11-28T11:15:06.214Z,6.39
2017-11-28T11:16:06.296Z,6.38
2017-11-28T11:17:06.029Z,6.36
2017-11-28T11:18:06.459Z,6.49
2017-11-28T11:19:06.427Z,6.43
2017-11-28T11:20:06.154Z,6.44
2017-11-28T11:21:06.411Z,6.41
2017-11-28T11:22:06.394Z,6.38
2017-11-28T11:23:06.226Z,6.36
2017-11-28T11:24:06.377Z,6.39
2017-11-28T11:25:06.360Z,6.39
2017-11-28T11:26:06.103Z,6.35
2017-11-28T11:27:06.346Z,6.54
2017-11-28T11:28:06.331Z,6.35
2017-11-28T11:29:05.909Z,6.44
2017-11-28T11:30:06.323Z,6.34
2017-11-28T11:31:06.297Z,6.41
2017-11-28T11:32:06.303Z,6.39
2017-11-28T11:33:06.316Z,6.46
2017-11-28T11:34:06.271Z,6.41
2017-11-28T11:35:06.004Z,6.52
2017-11-28T11:36:06.261Z,6.57
2017-11-28T11:37:06.256Z,6.5
2017-11-28T11:38:05.976Z,6.49
2017-11-28T11:39:05.972Z,6.49
2017-11-28T11:40:06.213Z,6.41
2017-11-28T11:41:06.201Z,6.39
2017-11-28T11:42:06.203Z,6.41
2017-11-28T11:43:06.033Z,6.44
2017-11-28T11:44:05.911Z,6.39
2017-11-28T11:45:05.917Z,6.39
2017-11-28T11:46:05.897Z,6.31
2017-11-28T11:47:05.888Z,6.28
2017-11-28T11:48:06.128Z,6.26
2017-11-28T11:49:06.120Z,6.29
2017-11-28T11:50:06.208Z,6.29
2017-11-28T11:51:06.098Z,6.28
2017-11-28T11:52:05.833Z,6.09
2017-11-28T11:53:05.661Z,6.1
2017-11-28T11:54:06.067Z,6.15
2017-11-28T11:55:05.899Z,6.1
2017-11-28T11:56:05.784Z,6.05
2017-11-28T11:57:05.776Z,6.15
2017-11-28T11:58:05.508Z,6.15
2017-11-28T11:59:06.027Z,6.1
2017-11-28T12:00:06.113Z,6.1
2017-11-28T12:01:05.999Z,6.12
2017-11-28T12:02:05.983Z,6.09
2017-11-28T12:03:05.557Z,6.12
2017-11-28T12:04:05.803Z,6.09
2017-11-28T12:05:05.800Z,6.1
2017-11-28T12:06:05.942Z,6.1
2017-11-28T12:07:05.928Z,6.12
2017-11-28T12:08:05.924Z,6.06
2017-11-28T12:09:05.913Z,6.05
2017-11-28T12:10:05.902Z,6.09
2017-11-28T12:11:05.901Z,6.13
2017-11-28T12:12:05.883Z,5.99
2017-11-28T12:13:05.868Z,5.97
2017-11-28T12:14:05.617Z,5.99
2017-11-28T12:15:05.594Z,6.02
2017-11-28T12:16:05.580Z,6.05
2017-11-28T12:17:05.574Z,6.13
2017-11-28T12:18:05.820Z,6.07
2017-11-28T12:19:05.820Z,6.01
2017-11-28T12:20:05.820Z,6.02
2017-11-28T12:21:05.891Z,6.01
2017-11-28T12:22:05.521Z,6.06
2017-11-28T12:23:05.511Z,6.02
2017-11-28T12:24:05.497Z,6.09
2017-11-28T12:25:05.239Z,6.07
2017-11-28T12:26:05.736Z,6.09
2017-11-28T12:27:05.726Z,6.02
2017-11-28T12:28:05.715Z,6.02
2017-11-28T12:29:05.703Z,6.15
2017-11-28T12:30:05.739Z,6.05
2017-11-28T12:31:05.172Z,6.13
2017-11-28T12:32:05.419Z,6.02
2017-11-28T12:33:05.663Z,6.06
2017-11-28T12:34:05.398Z,6.07
2017-11-28T12:35:05.399Z,6.07
2017-11-28T12:36:05.477Z,6.07
2017-11-28T12:37:05.620Z,5.97
2017-11-28T12:38:05.612Z,5.99
2017-11-28T12:39:05.347Z,6.06
2017-11-28T12:40:05.344Z,5.94
2017-11-28T12:41:05.329Z,5.98
2017-11-28T12:42:05.575Z,5.94
2017-11-28T12:43:05.557Z,5.94
2017-11-28T12:44:05.661Z,5.92
2017-11-28T12:45:05.537Z,5.92
2017-11-28T12:46:05.532Z,5.94
2017-11-28T12:47:05.521Z,6.01
2017-11-28T12:48:05.510Z,5.94
2017-11-28T12:49:05.341Z,5.92
2017-11-28T12:50:05.329Z,5.95
2017-11-28T12:51:05.478Z,6.01
2017-11-28T12:52:05.214Z,6.06
2017-11-28T12:53:05.205Z,5.97
2017-11-28T12:54:05.451Z,6.05
2017-11-28T12:55:04.925Z,6.06
2017-11-28T12:56:05.173Z,6.09
2017-11-28T12:57:05.426Z,6.05
2017-11-28T12:58:05.407Z,6.06
2017-11-28T12:59:05.152Z,6.09
2017-11-28T13:00:05.131Z,6.01
2017-11-28T13:01:05.123Z,6.01
2017-11-28T13:02:05.367Z,6.01
2017-11-28T13:03:05.358Z,6.15
2017-11-28T13:04:05.350Z,6.15
2017-11-28T13:05:05.335Z,6.1
2017-11-28T13:06:05.326Z,6.09
2017-11-28T13:07:05.064Z,6.1
2017-11-28T13:08:05.315Z,6.15
2017-11-28T13:09:05.043Z,6.05
2017-11-28T13:10:05.288Z,6.02
2017-11-28T13:11:05.271Z,6.07
2017-11-28T13:12:05.265Z,6.15
2017-11-28T13:13:04.996Z,6.05
2017-11-28T13:14:04.996Z,6.13
2017-11-28T13:15:05.085Z,6.15
2017-11-28T13:16:05.220Z,6.16
2017-11-28T13:17:05.209Z,6.07
2017-11-28T13:18:05.201Z,6.06
2017-11-28T13:19:05.192Z,6.07
2017-11-28T13:20:05.183Z,6.1
2017-11-28T13:21:05.013Z,6.13